sensor_id;sensor_type;location;lat;lon;timestamp;P1;durP1;ratioP1;P2;durP2;ratioP2
12950;SDS011;6540;50.858;7.232;2023-04-15T00:02:17;3.53;;;2.27;;
12950;SDS011;6540;50.858;7.232;2023-04-15T00:04:44;4.00;;;2.07;;
12950;SDS011;6540;50.858;7.232;2023-04-15T00:07:10;3.10;;;1.50;;
12950;SDS011;6540;50.858;7.232;2023-04-15T00:09:35;2.13;;;1.57;;
12950;SDS011;6540;50.858;7.232;2023-04-15T00:12:01;2.33;;;2.00;;
12950;SDS011;6540;50.858;7.232;2023-04-15T00:14:26;4.17;;;2.10;;
12950;SDS011;6540;50.858;7.232;2023-04-15T00:16:52;2.27;;;1.60;;
12950;SDS011;6540;50.858;7.232;2023-04-15T00:19:20;3.13;;;2.40;;
12950;SDS011;6540;50.858;7.232;2023-04-15T00:21:45;2.87;;;1.83;;
12950;SDS011;6540;50.858;7.232;2023-04-15T00:24:11;5.83;;;2.20;;
12950;SDS011;6540;50.858;7.232;2023-04-15T00:26:37;4.13;;;1.87;;
12950;SDS011;6540;50.858;7.232;2023-04-15T00:29:02;3.17;;;2.47;;
12950;SDS011;6540;50.858;7.232;2023-04-15T00:31:28;2.70;;;1.77;;
12950;SDS011;6540;50.858;7.232;2023-04-15T00:33:54;8.40;;;2.90;;
12950;SDS011;6540;50.858;7.232;2023-04-15T00:36:19;2.63;;;2.43;;
12950;SDS011;6540;50.858;7.232;2023-04-15T00:38:45;3.17;;;2.33;;
12950;SDS011;6540;50.858;7.232;2023-04-15T00:41:10;3.40;;;2.10;;
12950;SDS011;6540;50.858;7.232;2023-04-15T00:43:36;2.90;;;2.33;;
12950;SDS011;6540;50.858;7.232;2023-04-15T00:46:03;3.00;;;2.23;;
12950;SDS011;6540;50.858;7.232;2023-04-15T00:48:30;4.40;;;2.27;;
12950;SDS011;6540;50.858;7.232;2023-04-15T00:50:56;3.20;;;2.23;;
12950;SDS011;6540;50.858;7.232;2023-04-15T00:53:21;5.30;;;2.30;;
12950;SDS011;6540;50.858;7.232;2023-04-15T00:55:46;4.93;;;2.73;;
12950;SDS011;6540;50.858;7.232;2023-04-15T00:58:12;5.07;;;2.00;;
12950;SDS011;6540;50.858;7.232;2023-04-15T01:00:38;3.57;;;2.37;;
12950;SDS011;6540;50.858;7.232;2023-04-15T01:03:04;2.40;;;2.20;;
12950;SDS011;6540;50.858;7.232;2023-04-15T01:05:30;2.60;;;1.90;;
12950;SDS011;6540;50.858;7.232;2023-04-15T01:07:56;2.87;;;2.27;;
12950;SDS011;6540;50.858;7.232;2023-04-15T01:10:22;3.57;;;2.20;;
12950;SDS011;6540;50.858;7.232;2023-04-15T01:12:47;6.67;;;2.53;;
12950;SDS011;6540;50.858;7.232;2023-04-15T01:15:13;3.13;;;2.60;;
12950;SDS011;6540;50.858;7.232;2023-04-15T01:17:38;3.70;;;2.27;;
12950;SDS011;6540;50.858;7.232;2023-04-15T01:20:04;5.20;;;2.70;;
12950;SDS011;6540;50.858;7.232;2023-04-15T01:22:30;5.33;;;2.27;;
12950;SDS011;6540;50.858;7.232;2023-04-15T01:25:11;3.03;;;2.03;;
12950;SDS011;6540;50.858;7.232;2023-04-15T01:27:41;2.40;;;2.20;;
12950;SDS011;6540;50.858;7.232;2023-04-15T01:30:07;3.37;;;1.97;;
12950;SDS011;6540;50.858;7.232;2023-04-15T01:32:34;4.63;;;2.60;;
12950;SDS011;6540;50.858;7.232;2023-04-15T01:35:00;2.33;;;1.93;;
12950;SDS011;6540;50.858;7.232;2023-04-15T01:37:25;3.73;;;2.13;;
12950;SDS011;6540;50.858;7.232;2023-04-15T01:39:51;4.97;;;1.97;;
12950;SDS011;6540;50.858;7.232;2023-04-15T01:42:16;6.70;;;2.23;;
12950;SDS011;6540;50.858;7.232;2023-04-15T01:44:42;2.07;;;1.83;;
12950;SDS011;6540;50.858;7.232;2023-04-15T01:47:07;3.93;;;2.23;;
12950;SDS011;6540;50.858;7.232;2023-04-15T01:49:32;2.40;;;2.20;;
12950;SDS011;6540;50.858;7.232;2023-04-15T01:51:58;4.23;;;2.43;;
12950;SDS011;6540;50.858;7.232;2023-04-15T01:54:24;3.97;;;2.30;;
12950;SDS011;6540;50.858;7.232;2023-04-15T01:56:50;4.83;;;3.00;;
12950;SDS011;6540;50.858;7.232;2023-04-15T01:59:16;4.60;;;2.43;;
12950;SDS011;6540;50.858;7.232;2023-04-15T02:01:41;4.20;;;2.00;;
12950;SDS011;6540;50.858;7.232;2023-04-15T02:04:07;4.70;;;2.03;;
12950;SDS011;6540;50.858;7.232;2023-04-15T02:06:40;4.33;;;2.10;;
12950;SDS011;6540;50.858;7.232;2023-04-15T02:09:05;3.27;;;2.27;;
12950;SDS011;6540;50.858;7.232;2023-04-15T02:11:30;2.50;;;2.30;;
12950;SDS011;6540;50.858;7.232;2023-04-15T02:13:56;2.87;;;1.97;;
12950;SDS011;6540;50.858;7.232;2023-04-15T02:16:21;2.07;;;1.97;;
12950;SDS011;6540;50.858;7.232;2023-04-15T02:18:47;3.83;;;1.60;;
12950;SDS011;6540;50.858;7.232;2023-04-15T02:21:12;3.67;;;2.03;;
12950;SDS011;6540;50.858;7.232;2023-04-15T02:23:38;2.33;;;2.03;;
12950;SDS011;6540;50.858;7.232;2023-04-15T02:26:03;3.27;;;2.10;;
12950;SDS011;6540;50.858;7.232;2023-04-15T02:28:28;7.10;;;2.60;;
12950;SDS011;6540;50.858;7.232;2023-04-15T02:30:54;3.60;;;2.53;;
12950;SDS011;6540;50.858;7.232;2023-04-15T02:33:21;3.87;;;2.07;;
12950;SDS011;6540;50.858;7.232;2023-04-15T02:35:47;2.80;;;1.93;;
12950;SDS011;6540;50.858;7.232;2023-04-15T02:38:12;2.97;;;2.07;;
12950;SDS011;6540;50.858;7.232;2023-04-15T02:40:40;2.90;;;2.00;;
12950;SDS011;6540;50.858;7.232;2023-04-15T02:43:06;3.17;;;2.03;;
12950;SDS011;6540;50.858;7.232;2023-04-15T02:45:32;4.17;;;2.03;;
12950;SDS011;6540;50.858;7.232;2023-04-15T02:47:57;3.83;;;2.23;;
12950;SDS011;6540;50.858;7.232;2023-04-15T02:50:22;5.43;;;2.30;;
12950;SDS011;6540;50.858;7.232;2023-04-15T02:52:49;2.30;;;2.10;;
12950;SDS011;6540;50.858;7.232;2023-04-15T02:55:15;4.13;;;2.63;;
12950;SDS011;6540;50.858;7.232;2023-04-15T02:57:41;5.93;;;2.43;;
12950;SDS011;6540;50.858;7.232;2023-04-15T03:00:07;4.93;;;2.97;;
12950;SDS011;6540;50.858;7.232;2023-04-15T03:02:35;3.23;;;2.33;;
12950;SDS011;6540;50.858;7.232;2023-04-15T03:05:01;4.93;;;2.40;;
12950;SDS011;6540;50.858;7.232;2023-04-15T03:07:28;7.03;;;2.27;;
12950;SDS011;6540;50.858;7.232;2023-04-15T03:09:53;3.60;;;2.87;;
12950;SDS011;6540;50.858;7.232;2023-04-15T03:12:19;5.60;;;2.30;;
12950;SDS011;6540;50.858;7.232;2023-04-15T03:14:44;3.13;;;2.40;;
12950;SDS011;6540;50.858;7.232;2023-04-15T03:17:09;4.00;;;2.57;;
12950;SDS011;6540;50.858;7.232;2023-04-15T03:19:36;2.50;;;2.30;;
12950;SDS011;6540;50.858;7.232;2023-04-15T03:22:01;2.43;;;2.00;;
12950;SDS011;6540;50.858;7.232;2023-04-15T03:24:26;6.00;;;2.47;;
12950;SDS011;6540;50.858;7.232;2023-04-15T03:26:53;3.53;;;2.07;;
12950;SDS011;6540;50.858;7.232;2023-04-15T03:29:19;3.07;;;2.20;;
12950;SDS011;6540;50.858;7.232;2023-04-15T03:31:44;4.60;;;2.50;;
12950;SDS011;6540;50.858;7.232;2023-04-15T03:34:10;3.63;;;2.33;;
12950;SDS011;6540;50.858;7.232;2023-04-15T03:36:35;3.03;;;2.60;;
12950;SDS011;6540;50.858;7.232;2023-04-15T03:39:01;3.03;;;2.40;;
12950;SDS011;6540;50.858;7.232;2023-04-15T03:41:26;2.27;;;2.07;;
12950;SDS011;6540;50.858;7.232;2023-04-15T03:43:52;3.17;;;2.50;;
12950;SDS011;6540;50.858;7.232;2023-04-15T03:46:18;2.13;;;1.97;;
12950;SDS011;6540;50.858;7.232;2023-04-15T03:48:43;4.33;;;2.67;;
12950;SDS011;6540;50.858;7.232;2023-04-15T03:51:09;3.67;;;2.50;;
12950;SDS011;6540;50.858;7.232;2023-04-15T03:53:34;4.27;;;2.53;;
12950;SDS011;6540;50.858;7.232;2023-04-15T03:56:00;3.90;;;2.53;;
12950;SDS011;6540;50.858;7.232;2023-04-15T03:58:26;2.80;;;2.60;;
12950;SDS011;6540;50.858;7.232;2023-04-15T04:00:51;2.77;;;2.13;;
12950;SDS011;6540;50.858;7.232;2023-04-15T04:03:17;2.77;;;2.57;;
12950;SDS011;6540;50.858;7.232;2023-04-15T04:05:42;3.17;;;2.30;;
12950;SDS011;6540;50.858;7.232;2023-04-15T04:08:08;4.33;;;2.50;;
12950;SDS011;6540;50.858;7.232;2023-04-15T04:10:34;3.50;;;2.60;;
12950;SDS011;6540;50.858;7.232;2023-04-15T04:12:59;3.23;;;2.50;;
12950;SDS011;6540;50.858;7.232;2023-04-15T04:15:26;2.53;;;2.23;;
12950;SDS011;6540;50.858;7.232;2023-04-15T04:17:51;2.17;;;1.97;;
12950;SDS011;6540;50.858;7.232;2023-04-15T04:20:16;2.50;;;2.17;;
12950;SDS011;6540;50.858;7.232;2023-04-15T04:22:42;4.37;;;2.60;;
12950;SDS011;6540;50.858;7.232;2023-04-15T04:25:07;2.30;;;2.10;;
12950;SDS011;6540;50.858;7.232;2023-04-15T04:27:34;3.23;;;1.90;;
12950;SDS011;6540;50.858;7.232;2023-04-15T04:30:00;2.10;;;2.00;;
12950;SDS011;6540;50.858;7.232;2023-04-15T04:32:25;2.80;;;2.50;;
12950;SDS011;6540;50.858;7.232;2023-04-15T04:34:51;2.00;;;1.90;;
12950;SDS011;6540;50.858;7.232;2023-04-15T04:37:16;3.83;;;2.00;;
12950;SDS011;6540;50.858;7.232;2023-04-15T04:39:42;2.17;;;1.97;;
12950;SDS011;6540;50.858;7.232;2023-04-15T04:42:07;3.13;;;2.00;;
12950;SDS011;6540;50.858;7.232;2023-04-15T04:44:33;10.40;;;1.97;;
12950;SDS011;6540;50.858;7.232;2023-04-15T04:46:58;2.30;;;2.10;;
12950;SDS011;6540;50.858;7.232;2023-04-15T04:49:23;2.63;;;2.33;;
12950;SDS011;6540;50.858;7.232;2023-04-15T04:51:49;3.37;;;2.33;;
12950;SDS011;6540;50.858;7.232;2023-04-15T04:54:14;4.70;;;2.60;;
12950;SDS011;6540;50.858;7.232;2023-04-15T04:56:40;2.87;;;2.00;;
12950;SDS011;6540;50.858;7.232;2023-04-15T04:59:05;3.90;;;2.40;;
12950;SDS011;6540;50.858;7.232;2023-04-15T05:01:31;4.43;;;3.07;;
12950;SDS011;6540;50.858;7.232;2023-04-15T05:03:57;3.60;;;3.03;;
12950;SDS011;6540;50.858;7.232;2023-04-15T05:06:22;2.33;;;1.97;;
12950;SDS011;6540;50.858;7.232;2023-04-15T05:08:48;4.03;;;2.60;;
12950;SDS011;6540;50.858;7.232;2023-04-15T05:11:13;3.80;;;3.10;;
12950;SDS011;6540;50.858;7.232;2023-04-15T05:13:38;5.03;;;3.00;;
12950;SDS011;6540;50.858;7.232;2023-04-15T05:16:04;4.77;;;2.60;;
12950;SDS011;6540;50.858;7.232;2023-04-15T05:18:30;3.03;;;2.60;;
12950;SDS011;6540;50.858;7.232;2023-04-15T05:20:55;2.50;;;2.30;;
12950;SDS011;6540;50.858;7.232;2023-04-15T05:23:21;4.03;;;2.63;;
12950;SDS011;6540;50.858;7.232;2023-04-15T05:25:47;2.67;;;2.47;;
12950;SDS011;6540;50.858;7.232;2023-04-15T05:28:12;3.07;;;2.27;;
12950;SDS011;6540;50.858;7.232;2023-04-15T05:30:37;2.67;;;2.33;;
12950;SDS011;6540;50.858;7.232;2023-04-15T05:33:03;4.93;;;2.57;;
12950;SDS011;6540;50.858;7.232;2023-04-15T05:35:29;2.53;;;2.33;;
12950;SDS011;6540;50.858;7.232;2023-04-15T05:37:54;3.00;;;2.63;;
12950;SDS011;6540;50.858;7.232;2023-04-15T05:40:19;2.53;;;2.33;;
12950;SDS011;6540;50.858;7.232;2023-04-15T05:42:45;3.20;;;2.13;;
12950;SDS011;6540;50.858;7.232;2023-04-15T05:45:10;3.03;;;2.13;;
12950;SDS011;6540;50.858;7.232;2023-04-15T05:47:36;3.93;;;2.30;;
12950;SDS011;6540;50.858;7.232;2023-04-15T05:50:02;3.70;;;2.57;;
12950;SDS011;6540;50.858;7.232;2023-04-15T05:52:28;2.80;;;2.60;;
12950;SDS011;6540;50.858;7.232;2023-04-15T05:54:54;4.67;;;3.10;;
12950;SDS011;6540;50.858;7.232;2023-04-15T05:57:20;4.60;;;3.10;;
12950;SDS011;6540;50.858;7.232;2023-04-15T05:59:45;3.87;;;3.47;;
12950;SDS011;6540;50.858;7.232;2023-04-15T06:02:11;9.77;;;4.93;;
12950;SDS011;6540;50.858;7.232;2023-04-15T06:04:37;7.10;;;4.87;;
12950;SDS011;6540;50.858;7.232;2023-04-15T06:07:03;6.57;;;4.13;;
12950;SDS011;6540;50.858;7.232;2023-04-15T06:09:28;7.03;;;3.10;;
12950;SDS011;6540;50.858;7.232;2023-04-15T06:11:54;3.23;;;2.90;;
12950;SDS011;6540;50.858;7.232;2023-04-15T06:14:21;4.93;;;2.70;;
12950;SDS011;6540;50.858;7.232;2023-04-15T06:16:46;4.23;;;2.80;;
12950;SDS011;6540;50.858;7.232;2023-04-15T06:19:11;5.23;;;2.87;;
12950;SDS011;6540;50.858;7.232;2023-04-15T06:21:36;3.67;;;3.07;;
12950;SDS011;6540;50.858;7.232;2023-04-15T06:24:02;3.83;;;2.87;;
12950;SDS011;6540;50.858;7.232;2023-04-15T06:26:27;4.57;;;3.43;;
12950;SDS011;6540;50.858;7.232;2023-04-15T06:28:53;4.10;;;3.13;;
12950;SDS011;6540;50.858;7.232;2023-04-15T06:31:18;6.40;;;3.37;;
12950;SDS011;6540;50.858;7.232;2023-04-15T06:33:44;5.03;;;3.70;;
12950;SDS011;6540;50.858;7.232;2023-04-15T06:36:09;5.83;;;4.67;;
12950;SDS011;6540;50.858;7.232;2023-04-15T06:38:34;5.23;;;3.30;;
12950;SDS011;6540;50.858;7.232;2023-04-15T06:41:00;6.73;;;3.80;;
12950;SDS011;6540;50.858;7.232;2023-04-15T06:43:26;6.43;;;3.77;;
12950;SDS011;6540;50.858;7.232;2023-04-15T06:45:52;4.90;;;3.70;;
12950;SDS011;6540;50.858;7.232;2023-04-15T06:48:17;4.17;;;3.17;;
12950;SDS011;6540;50.858;7.232;2023-04-15T06:50:43;5.20;;;4.00;;
12950;SDS011;6540;50.858;7.232;2023-04-15T06:53:08;6.03;;;3.73;;
12950;SDS011;6540;50.858;7.232;2023-04-15T06:55:33;4.67;;;3.20;;
12950;SDS011;6540;50.858;7.232;2023-04-15T06:57:59;4.07;;;3.33;;
12950;SDS011;6540;50.858;7.232;2023-04-15T07:00:24;4.57;;;3.47;;
12950;SDS011;6540;50.858;7.232;2023-04-15T07:02:50;4.13;;;3.40;;
12950;SDS011;6540;50.858;7.232;2023-04-15T07:05:15;4.37;;;3.47;;
12950;SDS011;6540;50.858;7.232;2023-04-15T07:07:41;5.20;;;3.77;;
12950;SDS011;6540;50.858;7.232;2023-04-15T07:10:06;8.40;;;3.97;;
12950;SDS011;6540;50.858;7.232;2023-04-15T07:12:32;4.83;;;3.33;;
12950;SDS011;6540;50.858;7.232;2023-04-15T07:14:59;8.00;;;3.83;;
12950;SDS011;6540;50.858;7.232;2023-04-15T07:17:24;4.53;;;3.77;;
12950;SDS011;6540;50.858;7.232;2023-04-15T07:19:49;5.47;;;3.63;;
12950;SDS011;6540;50.858;7.232;2023-04-15T07:22:15;5.37;;;4.13;;
12950;SDS011;6540;50.858;7.232;2023-04-15T07:24:40;6.00;;;3.90;;
12950;SDS011;6540;50.858;7.232;2023-04-15T07:27:06;4.17;;;3.77;;
12950;SDS011;6540;50.858;7.232;2023-04-15T07:29:32;5.93;;;3.80;;
12950;SDS011;6540;50.858;7.232;2023-04-15T07:31:57;4.07;;;3.30;;
12950;SDS011;6540;50.858;7.232;2023-04-15T07:34:23;7.47;;;4.00;;
12950;SDS011;6540;50.858;7.232;2023-04-15T07:36:48;4.10;;;3.70;;
12950;SDS011;6540;50.858;7.232;2023-04-15T07:39:15;4.43;;;3.80;;
12950;SDS011;6540;50.858;7.232;2023-04-15T07:41:41;6.77;;;3.67;;
12950;SDS011;6540;50.858;7.232;2023-04-15T07:44:07;4.60;;;3.70;;
12950;SDS011;6540;50.858;7.232;2023-04-15T07:46:33;4.07;;;3.67;;
12950;SDS011;6540;50.858;7.232;2023-04-15T07:48:58;5.10;;;3.33;;
12950;SDS011;6540;50.858;7.232;2023-04-15T07:51:24;5.10;;;3.83;;
12950;SDS011;6540;50.858;7.232;2023-04-15T07:53:49;3.87;;;3.20;;
12950;SDS011;6540;50.858;7.232;2023-04-15T07:56:15;4.40;;;3.70;;
12950;SDS011;6540;50.858;7.232;2023-04-15T07:58:41;4.23;;;3.40;;
12950;SDS011;6540;50.858;7.232;2023-04-15T08:01:06;4.10;;;2.93;;
12950;SDS011;6540;50.858;7.232;2023-04-15T08:03:32;3.83;;;2.80;;
12950;SDS011;6540;50.858;7.232;2023-04-15T08:05:57;5.43;;;3.00;;
12950;SDS011;6540;50.858;7.232;2023-04-15T08:08:23;4.97;;;3.30;;
12950;SDS011;6540;50.858;7.232;2023-04-15T08:10:49;4.50;;;2.57;;
12950;SDS011;6540;50.858;7.232;2023-04-15T08:13:14;3.23;;;2.83;;
12950;SDS011;6540;50.858;7.232;2023-04-15T08:15:40;2.90;;;2.63;;
12950;SDS011;6540;50.858;7.232;2023-04-15T08:18:06;4.87;;;2.80;;
12950;SDS011;6540;50.858;7.232;2023-04-15T08:20:31;2.87;;;2.57;;
12950;SDS011;6540;50.858;7.232;2023-04-15T08:22:57;7.40;;;2.50;;
12950;SDS011;6540;50.858;7.232;2023-04-15T08:25:22;2.73;;;2.43;;
12950;SDS011;6540;50.858;7.232;2023-04-15T08:27:47;2.13;;;1.93;;
12950;SDS011;6540;50.858;7.232;2023-04-15T08:30:13;4.23;;;2.23;;
12950;SDS011;6540;50.858;7.232;2023-04-15T08:32:42;2.23;;;1.90;;
12950;SDS011;6540;50.858;7.232;2023-04-15T08:35:11;2.63;;;1.90;;
12950;SDS011;6540;50.858;7.232;2023-04-15T08:37:36;1.20;;;1.13;;
12950;SDS011;6540;50.858;7.232;2023-04-15T08:40:02;2.10;;;1.60;;
12950;SDS011;6540;50.858;7.232;2023-04-15T08:42:33;2.27;;;1.80;;
12950;SDS011;6540;50.858;7.232;2023-04-15T08:45:02;2.13;;;1.93;;
12950;SDS011;6540;50.858;7.232;2023-04-15T08:47:29;2.20;;;2.00;;
12950;SDS011;6540;50.858;7.232;2023-04-15T08:49:58;1.57;;;1.47;;
12950;SDS011;6540;50.858;7.232;2023-04-15T08:52:29;2.43;;;2.20;;
12950;SDS011;6540;50.858;7.232;2023-04-15T08:54:55;2.13;;;1.53;;
12950;SDS011;6540;50.858;7.232;2023-04-15T08:57:24;2.53;;;1.67;;
12950;SDS011;6540;50.858;7.232;2023-04-15T08:59:51;4.30;;;1.70;;
12950;SDS011;6540;50.858;7.232;2023-04-15T09:02:17;3.10;;;1.50;;
12950;SDS011;6540;50.858;7.232;2023-04-15T09:04:43;2.03;;;1.57;;
12950;SDS011;6540;50.858;7.232;2023-04-15T09:07:08;1.80;;;1.70;;
12950;SDS011;6540;50.858;7.232;2023-04-15T09:09:33;1.70;;;1.60;;
12950;SDS011;6540;50.858;7.232;2023-04-15T09:12:01;1.60;;;1.50;;
12950;SDS011;6540;50.858;7.232;2023-04-15T09:14:27;1.77;;;1.67;;
12950;SDS011;6540;50.858;7.232;2023-04-15T09:17:02;1.87;;;1.73;;
12950;SDS011;6540;50.858;7.232;2023-04-15T09:19:28;2.20;;;1.70;;
12950;SDS011;6540;50.858;7.232;2023-04-15T09:21:55;2.37;;;1.47;;
12950;SDS011;6540;50.858;7.232;2023-04-15T09:24:21;2.73;;;1.67;;
12950;SDS011;6540;50.858;7.232;2023-04-15T09:26:47;1.57;;;1.47;;
12950;SDS011;6540;50.858;7.232;2023-04-15T09:29:17;2.53;;;1.40;;
12950;SDS011;6540;50.858;7.232;2023-04-15T09:31:42;2.97;;;1.60;;
12950;SDS011;6540;50.858;7.232;2023-04-15T09:34:08;1.47;;;1.37;;
12950;SDS011;6540;50.858;7.232;2023-04-15T09:39:11;3.20;;;2.00;;
12950;SDS011;6540;50.858;7.232;2023-04-15T09:41:36;1.73;;;1.43;;
12950;SDS011;6540;50.858;7.232;2023-04-15T09:44:02;1.30;;;1.20;;
12950;SDS011;6540;50.858;7.232;2023-04-15T09:46:41;1.53;;;1.43;;
12950;SDS011;6540;50.858;7.232;2023-04-15T09:49:08;2.77;;;1.40;;
12950;SDS011;6540;50.858;7.232;2023-04-15T09:51:34;2.43;;;1.30;;
12950;SDS011;6540;50.858;7.232;2023-04-15T09:54:00;1.20;;;1.10;;
12950;SDS011;6540;50.858;7.232;2023-04-15T09:56:31;1.07;;;0.97;;
12950;SDS011;6540;50.858;7.232;2023-04-15T09:59:00;5.30;;;1.37;;
12950;SDS011;6540;50.858;7.232;2023-04-15T10:01:25;2.57;;;1.10;;
12950;SDS011;6540;50.858;7.232;2023-04-15T10:03:51;1.50;;;1.27;;
12950;SDS011;6540;50.858;7.232;2023-04-15T10:06:19;1.40;;;1.30;;
12950;SDS011;6540;50.858;7.232;2023-04-15T10:08:47;1.10;;;1.00;;
12950;SDS011;6540;50.858;7.232;2023-04-15T10:11:13;1.20;;;1.20;;
12950;SDS011;6540;50.858;7.232;2023-04-15T10:13:38;1.33;;;1.23;;
12950;SDS011;6540;50.858;7.232;2023-04-15T10:16:10;1.60;;;1.50;;
12950;SDS011;6540;50.858;7.232;2023-04-15T10:18:42;1.10;;;1.10;;
12950;SDS011;6540;50.858;7.232;2023-04-15T10:21:09;1.53;;;1.33;;
12950;SDS011;6540;50.858;7.232;2023-04-15T10:23:35;1.67;;;1.20;;
12950;SDS011;6540;50.858;7.232;2023-04-15T10:26:00;1.30;;;1.20;;
12950;SDS011;6540;50.858;7.232;2023-04-15T10:28:28;1.60;;;1.43;;
12950;SDS011;6540;50.858;7.232;2023-04-15T10:30:54;1.70;;;1.60;;
12950;SDS011;6540;50.858;7.232;2023-04-15T10:33:20;1.97;;;1.70;;
12950;SDS011;6540;50.858;7.232;2023-04-15T10:35:48;2.10;;;1.90;;
12950;SDS011;6540;50.858;7.232;2023-04-15T10:46:37;2.20;;;2.00;;
12950;SDS011;6540;50.858;7.232;2023-04-15T10:49:09;2.50;;;2.30;;
12950;SDS011;6540;50.858;7.232;2023-04-15T10:51:36;2.80;;;2.50;;
12950;SDS011;6540;50.858;7.232;2023-04-15T10:54:07;1.83;;;1.67;;
12950;SDS011;6540;50.858;7.232;2023-04-15T10:56:37;3.10;;;2.80;;
12950;SDS011;6540;50.858;7.232;2023-04-15T10:59:05;2.90;;;2.60;;
12950;SDS011;6540;50.858;7.232;2023-04-15T11:01:53;3.63;;;3.13;;
12950;SDS011;6540;50.858;7.232;2023-04-15T11:07:31;5.13;;;2.30;;
12950;SDS011;6540;50.858;7.232;2023-04-15T11:10:01;3.57;;;3.00;;
12950;SDS011;6540;50.858;7.232;2023-04-15T11:12:34;2.70;;;2.50;;
12950;SDS011;6540;50.858;7.232;2023-04-15T11:15:23;2.40;;;2.20;;
12950;SDS011;6540;50.858;7.232;2023-04-15T11:18:19;4.53;;;3.07;;
12950;SDS011;6540;50.858;7.232;2023-04-15T11:21:04;2.27;;;2.07;;
12950;SDS011;6540;50.858;7.232;2023-04-15T11:23:35;3.47;;;2.97;;
12950;SDS011;6540;50.858;7.232;2023-04-15T11:26:03;3.27;;;2.10;;
12950;SDS011;6540;50.858;7.232;2023-04-15T11:28:33;2.47;;;2.20;;
12950;SDS011;6540;50.858;7.232;2023-04-15T11:31:09;2.43;;;2.23;;
12950;SDS011;6540;50.858;7.232;2023-04-15T11:33:35;2.17;;;1.97;;
12950;SDS011;6540;50.858;7.232;2023-04-15T11:36:01;2.43;;;2.17;;
12950;SDS011;6540;50.858;7.232;2023-04-15T11:38:28;2.47;;;2.10;;
12950;SDS011;6540;50.858;7.232;2023-04-15T11:40:53;2.10;;;1.90;;
12950;SDS011;6540;50.858;7.232;2023-04-15T11:43:20;2.07;;;1.87;;
12950;SDS011;6540;50.858;7.232;2023-04-15T11:45:54;2.20;;;2.00;;
12950;SDS011;6540;50.858;7.232;2023-04-15T11:48:22;2.20;;;2.00;;
12950;SDS011;6540;50.858;7.232;2023-04-15T11:50:59;1.80;;;1.70;;
12950;SDS011;6540;50.858;7.232;2023-04-15T11:53:47;2.13;;;1.93;;
12950;SDS011;6540;50.858;7.232;2023-04-15T11:56:25;1.93;;;1.80;;
12950;SDS011;6540;50.858;7.232;2023-04-15T11:58:55;1.80;;;1.70;;
12950;SDS011;6540;50.858;7.232;2023-04-15T12:01:34;2.00;;;1.90;;
12950;SDS011;6540;50.858;7.232;2023-04-15T12:04:09;2.20;;;2.00;;
12950;SDS011;6540;50.858;7.232;2023-04-15T12:06:39;2.13;;;1.93;;
12950;SDS011;6540;50.858;7.232;2023-04-15T12:11:34;2.10;;;1.90;;
12950;SDS011;6540;50.858;7.232;2023-04-15T12:14:07;2.87;;;2.63;;
12950;SDS011;6540;50.858;7.232;2023-04-15T12:16:35;2.70;;;2.40;;
12950;SDS011;6540;50.858;7.232;2023-04-15T12:19:08;2.90;;;2.60;;
12950;SDS011;6540;50.858;7.232;2023-04-15T12:21:36;2.90;;;2.60;;
12950;SDS011;6540;50.858;7.232;2023-04-15T12:24:04;2.70;;;2.50;;
12950;SDS011;6540;50.858;7.232;2023-04-15T12:29:11;3.77;;;3.07;;
12950;SDS011;6540;50.858;7.232;2023-04-15T12:31:47;2.97;;;2.47;;
12950;SDS011;6540;50.858;7.232;2023-04-15T12:34:14;4.00;;;3.20;;
12950;SDS011;6540;50.858;7.232;2023-04-15T12:36:40;3.67;;;3.20;;
12950;SDS011;6540;50.858;7.232;2023-04-15T12:39:05;3.27;;;2.97;;
12950;SDS011;6540;50.858;7.232;2023-04-15T12:41:31;3.67;;;2.93;;
12950;SDS011;6540;50.858;7.232;2023-04-15T12:43:57;3.50;;;3.10;;
12950;SDS011;6540;50.858;7.232;2023-04-15T12:46:23;3.53;;;3.23;;
12950;SDS011;6540;50.858;7.232;2023-04-15T12:48:49;3.63;;;2.80;;
12950;SDS011;6540;50.858;7.232;2023-04-15T12:51:16;5.47;;;3.03;;
12950;SDS011;6540;50.858;7.232;2023-04-15T12:53:41;3.87;;;3.47;;
12950;SDS011;6540;50.858;7.232;2023-04-15T12:56:06;3.17;;;2.97;;
12950;SDS011;6540;50.858;7.232;2023-04-15T12:58:32;4.10;;;3.50;;
12950;SDS011;6540;50.858;7.232;2023-04-15T13:00:57;3.50;;;3.20;;
12950;SDS011;6540;50.858;7.232;2023-04-15T13:03:22;3.57;;;3.27;;
12950;SDS011;6540;50.858;7.232;2023-04-15T13:05:48;4.37;;;3.67;;
12950;SDS011;6540;50.858;7.232;2023-04-15T13:08:13;4.47;;;3.77;;
12950;SDS011;6540;50.858;7.232;2023-04-15T13:10:38;4.47;;;3.90;;
12950;SDS011;6540;50.858;7.232;2023-04-15T13:13:04;3.20;;;2.90;;
12950;SDS011;6540;50.858;7.232;2023-04-15T13:15:30;3.67;;;3.37;;
12950;SDS011;6540;50.858;7.232;2023-04-15T13:17:56;3.90;;;3.50;;
12950;SDS011;6540;50.858;7.232;2023-04-15T13:20:21;4.00;;;3.60;;
12950;SDS011;6540;50.858;7.232;2023-04-15T13:22:47;3.40;;;3.00;;
12950;SDS011;6540;50.858;7.232;2023-04-15T13:25:13;3.60;;;3.30;;
12950;SDS011;6540;50.858;7.232;2023-04-15T13:27:38;3.93;;;3.33;;
12950;SDS011;6540;50.858;7.232;2023-04-15T13:30:04;3.90;;;3.50;;
12950;SDS011;6540;50.858;7.232;2023-04-15T13:32:30;4.27;;;3.97;;
12950;SDS011;6540;50.858;7.232;2023-04-15T13:34:56;4.70;;;4.03;;
12950;SDS011;6540;50.858;7.232;2023-04-15T13:37:25;3.80;;;3.10;;
12950;SDS011;6540;50.858;7.232;2023-04-15T13:39:52;4.27;;;3.77;;
12950;SDS011;6540;50.858;7.232;2023-04-15T13:42:17;3.67;;;3.17;;
12950;SDS011;6540;50.858;7.232;2023-04-15T13:44:43;4.40;;;3.93;;
12950;SDS011;6540;50.858;7.232;2023-04-15T13:47:08;4.10;;;3.70;;
12950;SDS011;6540;50.858;7.232;2023-04-15T13:49:33;5.07;;;3.53;;
12950;SDS011;6540;50.858;7.232;2023-04-15T13:51:58;4.40;;;4.00;;
12950;SDS011;6540;50.858;7.232;2023-04-15T13:54:24;4.53;;;4.00;;
12950;SDS011;6540;50.858;7.232;2023-04-15T13:56:49;4.93;;;3.60;;
12950;SDS011;6540;50.858;7.232;2023-04-15T13:59:15;4.10;;;3.70;;
12950;SDS011;6540;50.858;7.232;2023-04-15T14:01:40;4.07;;;3.47;;
12950;SDS011;6540;50.858;7.232;2023-04-15T14:04:05;5.83;;;4.40;;
12950;SDS011;6540;50.858;7.232;2023-04-15T14:06:31;5.43;;;4.33;;
12950;SDS011;6540;50.858;7.232;2023-04-15T14:08:56;5.93;;;3.60;;
12950;SDS011;6540;50.858;7.232;2023-04-15T14:11:22;4.37;;;3.97;;
12950;SDS011;6540;50.858;7.232;2023-04-15T14:13:47;4.27;;;3.87;;
12950;SDS011;6540;50.858;7.232;2023-04-15T14:16:12;5.03;;;4.50;;
12950;SDS011;6540;50.858;7.232;2023-04-15T14:18:39;4.57;;;3.97;;
12950;SDS011;6540;50.858;7.232;2023-04-15T14:21:04;4.40;;;4.00;;
12950;SDS011;6540;50.858;7.232;2023-04-15T14:23:31;8.67;;;4.50;;
12950;SDS011;6540;50.858;7.232;2023-04-15T14:25:56;4.57;;;3.70;;
12950;SDS011;6540;50.858;7.232;2023-04-15T14:28:21;5.33;;;4.80;;
12950;SDS011;6540;50.858;7.232;2023-04-15T14:30:47;6.33;;;5.30;;
12950;SDS011;6540;50.858;7.232;2023-04-15T14:33:12;5.67;;;5.07;;
12950;SDS011;6540;50.858;7.232;2023-04-15T14:35:37;5.20;;;4.57;;
12950;SDS011;6540;50.858;7.232;2023-04-15T14:38:03;6.97;;;5.90;;
12950;SDS011;6540;50.858;7.232;2023-04-15T14:40:30;7.10;;;5.80;;
12950;SDS011;6540;50.858;7.232;2023-04-15T14:42:55;7.03;;;6.30;;
12950;SDS011;6540;50.858;7.232;2023-04-15T14:45:21;6.90;;;5.77;;
12950;SDS011;6540;50.858;7.232;2023-04-15T14:47:46;6.37;;;5.77;;
12950;SDS011;6540;50.858;7.232;2023-04-15T14:50:12;6.40;;;5.73;;
12950;SDS011;6540;50.858;7.232;2023-04-15T14:52:37;6.87;;;5.80;;
12950;SDS011;6540;50.858;7.232;2023-04-15T14:55:04;6.20;;;5.60;;
12950;SDS011;6540;50.858;7.232;2023-04-15T14:57:31;6.60;;;5.87;;
12950;SDS011;6540;50.858;7.232;2023-04-15T14:59:56;7.83;;;5.40;;
12950;SDS011;6540;50.858;7.232;2023-04-15T15:02:21;5.97;;;5.07;;
12950;SDS011;6540;50.858;7.232;2023-04-15T15:04:47;6.07;;;5.47;;
12950;SDS011;6540;50.858;7.232;2023-04-15T15:07:12;5.63;;;5.13;;
12950;SDS011;6540;50.858;7.232;2023-04-15T15:09:37;6.60;;;5.77;;
12950;SDS011;6540;50.858;7.232;2023-04-15T15:12:03;5.80;;;4.93;;
12950;SDS011;6540;50.858;7.232;2023-04-15T15:14:28;6.40;;;5.23;;
12950;SDS011;6540;50.858;7.232;2023-04-15T15:16:54;7.57;;;4.77;;